createdAt,value
2022-08-22T00:02:13.013Z,57.3
2022-08-22T00:22:12.998Z,56.0
2022-08-22T00:42:12.971Z,57.4
2022-08-22T01:22:12.856Z,60.7
2022-08-22T01:42:12.897Z,61.1
2022-08-22T02:02:12.862Z,60.3
2022-08-22T02:22:12.847Z,61.2
2022-08-22T03:02:12.728Z,63.1
2022-08-22T03:22:12.776Z,63.0
2022-08-22T03:42:12.677Z,63.4
2022-08-22T04:02:12.654Z,65.9
2022-08-22T04:22:12.651Z,65.8
2022-08-22T05:02:12.620Z,66.2
2022-08-22T05:22:12.632Z,66.2
2022-08-22T05:42:12.535Z,66.1
2022-08-22T06:02:12.574Z,64.6
2022-08-22T06:22:12.501Z,65.0
2022-08-22T06:42:12.509Z,62.8
2022-08-22T07:02:12.448Z,60.9
2022-08-22T07:22:12.438Z,60.1
2022-08-22T07:42:12.394Z,56.5
2022-08-22T08:02:12.399Z,54.1
2022-08-22T08:22:12.326Z,57.3
2022-08-22T08:42:12.311Z,52.9
2022-08-22T09:02:12.341Z,51.0
2022-08-22T09:22:12.285Z,50.8
2022-08-22T09:42:12.298Z,46.5
2022-08-22T10:02:15.290Z,44.3
2022-08-22T10:22:12.265Z,42.2
2022-08-22T10:42:12.281Z,39.5
2022-08-22T11:02:12.149Z,39.2
2022-08-22T11:42:12.072Z,37.2
2022-08-22T12:42:12.068Z,33.6
2022-08-22T13:02:12.067Z,30.6
2022-08-22T13:22:12.043Z,36.2
2022-08-22T13:42:14.145Z,33.7
2022-08-22T14:02:15.128Z,31.7
2022-08-22T14:22:11.860Z,33.2
2022-08-22T14:42:11.903Z,32.1
2022-08-22T15:02:11.857Z,30.8
2022-08-22T15:22:11.817Z,32.1
2022-08-22T15:42:11.775Z,32.9
2022-08-22T16:02:11.720Z,34.9
2022-08-22T16:22:11.717Z,32.3
2022-08-22T16:42:11.789Z,32.6
2022-08-22T17:02:11.708Z,33.5
2022-08-22T17:22:11.629Z,34.0
2022-08-22T17:42:11.662Z,35.7
2022-08-22T18:02:11.651Z,37.1
2022-08-22T18:42:11.614Z,40.4
2022-08-22T19:02:11.574Z,41.5
2022-08-22T19:22:11.549Z,42.3
2022-08-22T19:42:11.494Z,42.8
2022-08-22T20:02:11.419Z,42.3
2022-08-22T20:42:11.390Z,41.7
2022-08-22T21:22:11.303Z,40.8
2022-08-22T22:02:11.250Z,40.3
2022-08-22T22:22:11.266Z,41.6
2022-08-22T22:42:11.264Z,42.0
2022-08-22T23:02:11.195Z,43.4
2022-08-22T23:22:11.233Z,44.1
2022-08-22T23:42:11.153Z,44.4
